Time;durP1;ratioP1;P1;durP2;ratioP2;P2;SDS_P1;SDS_P2;PMS_P1;PMS_P2;Temp;Humidity;BMP_temperature;BMP_pressure;BME280_temperature;BME280_humidity;BME280_pressure;Samples;Min_cycle;Max_cycle;Signal;HPM_P1;HPM_P2
2022/04/05 00:01:32;;;;;;;8.35;5.40;;;23.10;99.90;;;;;;5063799;28;20028;-65
2022/04/05 00:03:59;;;;;;;14.02;7.65;;;23.10;99.30;;;;;;5057600;28;20445;-67
2022/04/05 00:06:26;;;;;;;8.07;6.00;;;23.20;99.20;;;;;;5058674;28;20039;-64
2022/04/05 00:08:53;;;;;;;9.88;6.45;;;23.40;99.00;;;;;;5058773;28;20017;-66
2022/04/05 00:11:20;;;;;;;10.05;5.93;;;23.70;98.60;;;;;;5060738;28;20024;-64
2022/04/05 00:13:47;;;;;;;9.40;6.00;;;24.00;98.00;;;;;;5060986;28;20782;-65
2022/04/05 00:16:14;;;;;;;14.30;6.10;;;24.20;97.50;;;;;;5059864;28;20028;-66
2022/04/05 00:18:41;;;;;;;10.82;6.03;;;24.30;97.80;;;;;;5060174;28;20059;-63
2022/04/05 00:21:08;;;;;;;8.48;5.90;;;24.40;97.60;;;;;;5061978;28;20039;-67
2022/04/05 00:23:35;;;;;;;10.70;5.82;;;24.40;97.70;;;;;;5058317;28;20122;-64
2022/04/05 00:26:02;;;;;;;10.93;5.30;;;24.40;97.50;;;;;;5057747;28;20048;-67
2022/04/05 00:28:30;;;;;;;8.70;6.07;;;24.60;97.20;;;;;;5059192;28;20052;-65
2022/04/05 00:30:57;;;;;;;8.38;4.78;;;24.80;96.50;;;;;;5060178;28;20024;-64
2022/04/05 00:33:24;;;;;;;7.47;5.45;;;24.80;97.00;;;;;;5063475;28;20064;-66
2022/04/05 00:35:51;;;;;;;6.50;5.70;;;24.90;96.70;;;;;;5058623;28;20028;-65
2022/04/05 00:38:18;;;;;;;8.40;5.38;;;25.10;96.90;;;;;;5061242;28;20149;-65
2022/04/05 00:40:45;;;;;;;10.52;5.00;;;25.20;96.10;;;;;;5060933;28;20600;-66
2022/04/05 00:43:12;;;;;;;8.77;5.50;;;25.50;96.00;;;;;;5057737;28;20104;-65
2022/04/05 00:45:39;;;;;;;12.93;5.65;;;25.50;95.10;;;;;;5060272;28;20020;-65
2022/04/05 00:48:07;;;;;;;6.95;4.82;;;25.50;95.30;;;;;;5060027;28;20021;-65
2022/04/05 00:50:37;;;;;;;12.82;5.90;;;25.50;95.10;;;;;;5061239;28;20029;-65
2022/04/05 00:53:07;;;;;;;11.00;6.00;;;25.60;95.40;;;;;;5062167;28;20066;-65
2022/04/05 00:55:35;;;;;;;7.68;4.63;;;25.60;95.40;;;;;;5064520;28;20055;-66
2022/04/05 00:58:03;;;;;;;11.25;5.55;;;25.80;96.30;;;;;;5058224;28;20029;-65
2022/04/05 01:00:32;;;;;;;11.57;5.47;;;25.90;94.90;;;;;;5058683;28;20028;-66
2022/04/05 01:03:00;;;;;;;5.82;4.78;;;26.00;95.10;;;;;;5057171;28;20098;-65
2022/04/05 01:05:28;;;;;;;6.53;5.28;;;26.30;94.80;;;;;;5059633;28;20047;-65
2022/04/05 01:07:59;;;;;;;7.65;4.55;;;26.30;93.10;;;;;;5057954;28;20029;-66
2022/04/05 01:10:29;;;;;;;7.28;4.80;;;26.50;93.10;;;;;;5058287;28;20070;-65
2022/04/05 01:12:57;;;;;;;6.28;4.47;;;26.70;92.50;;;;;;5059110;28;20130;-65
2022/04/05 01:15:24;;;;;;;6.78;3.95;;;26.70;92.00;;;;;;5058158;28;20071;-65
2022/04/05 01:17:52;;;;;;;5.68;3.70;;;26.80;91.30;;;;;;5058282;28;20016;-65
2022/04/05 01:20:19;;;;;;;6.35;4.38;;;27.00;89.60;;;;;;5057773;28;20240;-65
2022/04/05 01:22:50;;;;;;;7.55;4.28;;;27.10;90.30;;;;;;5058355;28;20032;-64
2022/04/05 01:25:19;;;;;;;9.30;3.88;;;27.30;91.00;;;;;;5057729;28;20024;-65
2022/04/05 01:27:46;;;;;;;5.45;4.00;;;27.50;90.90;;;;;;5060330;28;20033;-65
2022/04/05 01:30:14;;;;;;;7.72;4.60;;;27.50;89.70;;;;;;5058569;28;20475;-66
2022/04/05 01:32:41;;;;;;;6.05;4.18;;;27.60;90.10;;;;;;5057062;28;20055;-65
2022/04/05 01:35:09;;;;;;;6.68;4.55;;;27.70;89.50;;;;;;5057789;28;20041;-65
2022/04/05 01:37:36;;;;;;;7.13;4.10;;;27.80;88.30;;;;;;5059675;28;20085;-65
2022/04/05 01:40:04;;;;;;;4.43;3.88;;;27.80;88.60;;;;;;5058015;28;20699;-66
2022/04/05 01:42:33;;;;;;;7.45;4.50;;;27.80;89.10;;;;;;5063717;28;20028;-65
2022/04/05 01:45:01;;;;;;;5.82;3.95;;;28.20;85.40;;;;;;5065982;28;20024;-66
2022/04/05 01:47:28;;;;;;;6.05;4.57;;;28.20;87.20;;;;;;5063714;28;20021;-65
2022/04/05 01:49:54;;;;;;;6.80;5.22;;;28.20;85.00;;;;;;5069685;28;20031;-65
2022/04/05 01:52:21;;;;;;;7.88;4.30;;;28.40;84.30;;;;;;5066141;28;20029;-66
2022/04/05 01:54:48;;;;;;;4.10;3.63;;;28.30;84.30;;;;;;5062603;28;20082;-65
2022/04/05 01:57:15;;;;;;;7.88;4.13;;;28.10;82.60;;;;;;5065535;28;20024;-65
2022/04/05 01:59:44;;;;;;;4.88;4.35;;;28.10;83.90;;;;;;5061970;28;20090;-65
2022/04/05 02:02:12;;;;;;;7.15;4.32;;;28.40;83.60;;;;;;5065383;28;20618;-66
2022/04/05 02:04:39;;;;;;;6.20;4.63;;;28.40;82.50;;;;;;5062868;28;20497;-65
2022/04/05 02:07:12;;;;;;;6.78;4.03;;;28.40;85.10;;;;;;5059423;28;20027;-66
2022/04/05 02:09:39;;;;;;;6.78;4.10;;;28.50;83.70;;;;;;5061392;28;20025;-65
2022/04/05 02:12:06;;;;;;;5.10;4.60;;;28.50;83.20;;;;;;5067365;28;20060;-65
2022/04/05 02:14:34;;;;;;;6.82;4.70;;;28.50;79.70;;;;;;5061587;28;20088;-65
2022/04/05 02:17:00;;;;;;;3.90;3.58;;;28.50;79.00;;;;;;5060485;28;20017;-65
2022/04/05 02:19:27;;;;;;;8.48;4.20;;;28.50;78.20;;;;;;5059801;28;20029;-66
2022/04/05 02:21:55;;;;;;;5.63;4.35;;;28.60;79.10;;;;;;5069464;28;20019;-65
2022/04/05 02:24:22;;;;;;;6.05;4.43;;;28.70;77.60;;;;;;5061787;28;20020;-66
2022/04/05 02:26:50;;;;;;;4.65;4.13;;;28.90;76.30;;;;;;5061997;28;20036;-65
2022/04/05 02:29:17;;;;;;;5.60;4.30;;;28.90;77.60;;;;;;5063763;28;20600;-65
2022/04/05 02:31:44;;;;;;;5.07;4.40;;;28.80;76.50;;;;;;5068142;28;20023;-65
2022/04/05 02:34:11;;;;;;;4.50;3.92;;;28.70;76.00;;;;;;5063305;28;20505;-66
2022/04/05 02:36:38;;;;;;;5.13;4.43;;;28.70;76.90;;;;;;5061081;28;20744;-65
2022/04/05 02:39:06;;;;;;;5.20;3.95;;;29.10;76.20;;;;;;5058941;28;20119;-66
2022/04/05 02:41:33;;;;;;;4.38;3.72;;;29.40;76.80;;;;;;5066486;28;20025;-66
2022/04/05 02:44:00;;;;;;;5.75;3.70;;;29.80;75.80;;;;;;5063346;28;20105;-66
2022/04/05 02:46:28;;;;;;;4.72;3.53;;;29.90;75.50;;;;;;5055670;28;20025;-65
2022/04/05 02:48:55;;;;;;;4.80;3.55;;;29.90;74.50;;;;;;5060802;28;20039;-65
2022/04/05 02:51:23;;;;;;;4.63;3.78;;;30.00;73.30;;;;;;5068380;28;20033;-66
2022/04/05 02:53:50;;;;;;;5.93;3.42;;;30.20;73.20;;;;;;5069786;28;20024;-66
2022/04/05 02:56:17;;;;;;;3.30;3.00;;;30.40;72.00;;;;;;5059617;28;20040;-66
2022/04/05 02:58:47;;;;;;;4.10;3.53;;;30.40;71.50;;;;;;5061585;28;20033;-66
2022/04/05 03:01:16;;;;;;;4.00;3.58;;;30.50;71.00;;;;;;5068771;28;20024;-66
2022/04/05 03:03:43;;;;;;;3.97;3.58;;;30.70;70.60;;;;;;5069445;28;20036;-65
2022/04/05 03:06:10;;;;;;;3.78;3.40;;;30.80;70.40;;;;;;5058424;28;20028;-65
2022/04/05 03:08:38;;;;;;;4.53;3.90;;;30.90;69.70;;;;;;5059233;28;20376;-66
2022/04/05 03:11:05;;;;;;;4.00;3.22;;;30.70;70.50;;;;;;5067842;28;20025;-66
2022/04/05 03:13:32;;;;;;;3.95;3.55;;;30.20;67.90;;;;;;5066343;28;20421;-66
2022/04/05 03:15:59;;;;;;;4.95;3.67;;;30.20;69.10;;;;;;5062450;28;20056;-66
2022/04/05 03:18:27;;;;;;;3.95;3.13;;;30.40;66.50;;;;;;5057601;28;20033;-66
2022/04/05 03:20:54;;;;;;;4.80;3.30;;;29.90;67.20;;;;;;5062532;28;20865;-66
2022/04/05 03:23:21;;;;;;;4.13;3.30;;;30.00;68.80;;;;;;5065758;28;20775;-66
2022/04/05 03:25:49;;;;;;;5.90;4.68;;;30.30;68.10;;;;;;5062730;28;20072;-64
2022/04/05 03:28:18;;;;;;;3.65;3.00;;;30.30;69.40;;;;;;5061218;28;20032;-65
2022/04/05 03:30:47;;;;;;;3.42;2.95;;;30.20;68.20;;;;;;5059513;28;20017;-65
2022/04/05 03:33:15;;;;;;;5.63;3.20;;;30.20;67.80;;;;;;5060875;28;20031;-66
2022/04/05 03:35:42;;;;;;;3.92;3.05;;;30.00;66.20;;;;;;5060985;28;20133;-65
2022/04/05 03:38:09;;;;;;;6.18;2.65;;;29.80;67.00;;;;;;5061858;28;20521;-65
2022/04/05 03:40:36;;;;;;;3.67;2.83;;;29.80;67.30;;;;;;5062050;28;20039;-65
2022/04/05 03:43:03;;;;;;;4.45;2.80;;;29.90;66.50;;;;;;5059390;28;20062;-65
2022/04/05 03:45:30;;;;;;;3.10;2.40;;;30.10;66.10;;;;;;5064421;28;20542;-66
2022/04/05 03:47:57;;;;;;;3.88;2.22;;;30.20;68.20;;;;;;5059517;28;20480;-64
2022/04/05 03:50:24;;;;;;;2.20;2.00;;;30.30;68.00;;;;;;5063368;28;20021;-66
2022/04/05 03:52:51;;;;;;;3.88;2.03;;;30.50;69.10;;;;;;5058258;28;20067;-66
2022/04/05 03:55:18;;;;;;;2.35;2.10;;;30.50;68.90;;;;;;5061576;28;20048;-64
2022/04/05 03:57:45;;;;;;;2.45;2.25;;;30.50;67.40;;;;;;5061421;28;20024;-66
2022/04/05 04:00:13;;;;;;;3.25;2.50;;;30.60;68.70;;;;;;5059379;28;20042;-65
2022/04/05 04:02:40;;;;;;;2.60;2.15;;;30.60;66.80;;;;;;5056687;28;20166;-65
2022/04/05 04:05:07;;;;;;;2.83;2.17;;;30.50;66.60;;;;;;5058415;28;20079;-65
2022/04/05 04:07:44;;;;;;;3.45;1.98;;;30.70;67.60;;;;;;5060305;28;20028;-65
2022/04/05 04:10:11;;;;;;;3.45;2.13;;;31.00;67.20;;;;;;5068276;28;20044;-65
2022/04/05 04:12:38;;;;;;;2.30;1.90;;;31.10;67.50;;;;;;5060007;28;20031;-66
2022/04/05 04:15:06;;;;;;;2.53;2.03;;;31.30;68.80;;;;;;5061506;28;20082;-65
2022/04/05 04:17:33;;;;;;;3.28;2.00;;;31.30;67.00;;;;;;5061452;28;20029;-65
2022/04/05 04:20:00;;;;;;;2.38;2.00;;;31.30;66.30;;;;;;5072256;28;20494;-66
2022/04/05 04:22:27;;;;;;;3.10;2.22;;;31.00;67.40;;;;;;5066469;28;20028;-65
2022/04/05 04:24:56;;;;;;;3.45;2.33;;;30.90;67.50;;;;;;5061941;28;20027;-66
2022/04/05 04:27:24;;;;;;;3.40;2.22;;;30.90;68.00;;;;;;5060601;28;20391;-65
2022/04/05 04:29:51;;;;;;;3.13;2.00;;;30.80;67.40;;;;;;5066096;28;20859;-66
2022/04/05 04:32:18;;;;;;;2.35;2.10;;;30.80;67.00;;;;;;5068221;28;20028;-66
2022/04/05 04:34:45;;;;;;;3.60;1.83;;;30.70;68.00;;;;;;5065725;28;20034;-65
2022/04/05 04:37:13;;;;;;;2.85;2.20;;;30.80;68.50;;;;;;5062723;28;20053;-66
2022/04/05 04:39:40;;;;;;;3.10;2.15;;;31.00;68.60;;;;;;5063346;28;20112;-65
2022/04/05 04:42:08;;;;;;;3.60;1.83;;;31.20;69.10;;;;;;5056467;28;20024;-66
2022/04/05 04:44:35;;;;;;;2.97;1.95;;;31.50;68.30;;;;;;5064873;28;20021;-65
2022/04/05 04:47:02;;;;;;;3.00;1.75;;;31.60;77.40;;;;;;5068924;28;20522;-65
2022/04/05 04:49:29;;;;;;;5.13;2.13;;;31.40;80.00;;;;;;5057878;28;20374;-64
2022/04/05 04:51:56;;;;;;;5.32;2.10;;;31.60;80.00;;;;;;5059223;28;20039;-66
2022/04/05 04:54:23;;;;;;;5.55;1.98;;;31.30;82.40;;;;;;5058880;28;20068;-64
2022/04/05 04:56:50;;;;;;;3.30;1.83;;;30.70;84.80;;;;;;5064513;28;20025;-64
2022/04/05 04:59:18;;;;;;;4.40;1.92;;;30.30;87.40;;;;;;5061083;28;20020;-64
2022/04/05 05:01:45;;;;;;;3.75;2.03;;;30.00;89.00;;;;;;5063327;28;20103;-65
2022/04/05 05:04:12;;;;;;;5.85;1.85;;;29.90;89.90;;;;;;5065947;28;20028;-63
2022/04/05 05:06:39;;;;;;;2.70;1.80;;;29.60;90.60;;;;;;5061753;28;20037;-66
2022/04/05 05:09:06;;;;;;;5.50;1.80;;;29.30;91.50;;;;;;5067033;28;20448;-65
2022/04/05 05:11:32;;;;;;;3.20;1.83;;;29.10;91.10;;;;;;5062600;28;20543;-66
2022/04/05 05:13:59;;;;;;;5.93;2.45;;;28.90;91.40;;;;;;5063550;28;20028;-64
2022/04/05 05:16:26;;;;;;;3.78;1.90;;;29.00;92.30;;;;;;5062472;28;20024;-65
2022/04/05 05:18:53;;;;;;;6.28;1.92;;;29.00;91.70;;;;;;5065495;28;20067;-65
2022/04/05 05:21:20;;;;;;;3.70;2.05;;;28.90;92.40;;;;;;5064952;28;20509;-65
2022/04/05 05:23:47;;;;;;;5.38;2.40;;;28.80;93.00;;;;;;5061440;28;20707;-66
2022/04/05 05:26:15;;;;;;;4.40;1.75;;;28.80;93.60;;;;;;5063429;28;20143;-65
2022/04/05 05:28:42;;;;;;;8.70;2.17;;;28.70;94.00;;;;;;5063553;28;20020;-64
2022/04/05 05:31:09;;;;;;;4.97;2.28;;;28.60;94.50;;;;;;5056169;28;20032;-62
2022/04/05 05:33:36;;;;;;;5.25;2.08;;;28.60;94.80;;;;;;5063950;28;20035;-67
2022/04/05 05:36:03;;;;;;;5.38;2.10;;;28.50;95.10;;;;;;5061232;28;20036;-66
2022/04/05 05:38:30;;;;;;;6.72;2.10;;;28.40;95.70;;;;;;5062314;28;20055;-64
2022/04/05 05:40:57;;;;;;;6.60;2.20;;;28.30;96.30;;;;;;5063806;28;20278;-63
2022/04/05 05:43:24;;;;;;;9.82;2.22;;;28.20;96.60;;;;;;5064890;28;20025;-67
2022/04/05 05:45:51;;;;;;;5.18;1.92;;;27.90;97.30;;;;;;5056486;28;20024;-67
2022/04/05 05:48:18;;;;;;;5.35;2.20;;;27.90;98.00;;;;;;5056468;28;20619;-67
2022/04/05 05:50:46;;;;;;;5.63;2.00;;;27.90;97.60;;;;;;5059826;28;20025;-68
2022/04/05 05:53:13;;;;;;;5.88;2.20;;;27.60;98.20;;;;;;5061848;28;20387;-64
2022/04/05 05:55:41;;;;;;;6.18;2.30;;;27.50;98.60;;;;;;5060560;28;20491;-67
2022/04/05 05:58:08;;;;;;;6.28;2.10;;;27.60;98.80;;;;;;5061114;28;20035;-66
2022/04/05 06:00:35;;;;;;;4.72;1.95;;;27.40;98.70;;;;;;5061349;28;20249;-63
2022/04/05 06:03:03;;;;;;;4.10;1.85;;;27.20;99.60;;;;;;5060838;28;20056;-66
2022/04/05 06:05:31;;;;;;;5.78;2.13;;;27.40;99.20;;;;;;5061191;28;20471;-63
2022/04/05 06:07:59;;;;;;;7.10;2.53;;;27.50;99.40;;;;;;5057380;28;20100;-67
2022/04/05 06:10:26;;;;;;;5.88;1.98;;;27.80;99.60;;;;;;5059491;28;21001;-66
2022/04/05 06:12:55;;;;;;;5.00;2.05;;;28.00;98.90;;;;;;5059685;28;20498;-67
2022/04/05 06:15:23;;;;;;;4.82;1.73;;;27.90;99.10;;;;;;5060659;28;20123;-66
2022/04/05 06:17:51;;;;;;;4.95;1.90;;;27.70;99.30;;;;;;5059925;28;20386;-69
2022/04/05 06:20:19;;;;;;;7.72;2.20;;;27.50;99.90;;;;;;5059725;28;20028;-67
2022/04/05 06:22:52;;;;;;;6.20;2.55;;;27.70;99.90;;;;;;5060885;28;20024;-68
2022/04/05 06:25:27;;;;;;;4.60;1.73;;;27.70;99.90;;;;;;5064592;28;20530;-69
2022/04/05 06:27:58;;;;;;;5.93;1.80;;;27.70;99.90;;;;;;5060680;28;20796;-66
2022/04/05 06:30:25;;;;;;;6.68;2.40;;;27.90;99.70;;;;;;5062348;28;20094;-69
2022/04/05 06:33:03;;;;;;;6.40;1.70;;;27.60;99.90;;;;;;5061467;28;20060;-65
2022/04/05 06:35:30;;;;;;;6.57;2.38;;;27.70;99.90;;;;;;5060439;28;20095;-64
2022/04/05 06:37:57;;;;;;;8.63;2.00;;;27.70;99.90;;;;;;5059537;28;20044;-66
2022/04/05 06:40:24;;;;;;;4.53;1.65;;;27.30;99.90;;;;;;5058893;28;20036;-68
2022/04/05 06:42:51;;;;;;;7.43;1.83;;;27.10;99.90;;;;;;5059212;28;20387;-64
2022/04/05 06:45:19;;;;;;;8.27;2.25;;;27.20;99.90;;;;;;5060535;28;20031;-68
2022/04/05 06:47:47;;;;;;;6.93;2.25;;;27.30;99.90;;;;;;5059743;28;20023;-68
2022/04/05 06:50:20;;;;;;;6.60;1.90;;;27.30;99.90;;;;;;5059586;28;20383;-68
2022/04/05 06:52:48;;;;;;;3.63;1.95;;;27.10;99.90;;;;;;5060258;28;20413;-68
2022/04/05 06:55:15;;;;;;;7.40;1.77;;;26.90;99.90;;;;;;5058670;28;20074;-65
2022/04/05 06:57:42;;;;;;;4.95;1.80;;;26.90;99.90;;;;;;5058572;28;20021;-63
2022/04/05 07:00:11;;;;;;;4.13;1.55;;;27.00;99.90;;;;;;5059387;28;20274;-66
2022/04/05 07:02:39;;;;;;;5.78;2.17;;;26.80;99.90;;;;;;5059694;28;20399;-67
2022/04/05 07:05:08;;;;;;;5.50;2.28;;;26.70;99.90;;;;;;5057395;28;20032;-64
2022/04/05 07:07:35;;;;;;;6.55;2.28;;;26.60;99.90;;;;;;5057809;28;20024;-66
2022/04/05 07:10:04;;;;;;;7.57;2.53;;;26.40;99.90;;;;;;5058285;28;20032;-67
2022/04/05 07:12:32;;;;;;;6.00;1.95;;;25.80;99.90;;;;;;5058991;28;21049;-65
2022/04/05 07:14:59;;;;;;;3.83;1.70;;;25.60;99.90;;;;;;5058611;28;20031;-66
2022/04/05 07:17:26;;;;;;;7.18;2.42;;;25.50;99.90;;;;;;5057720;28;20017;-67
2022/04/05 07:19:53;;;;;;;6.43;2.08;;;25.10;99.90;;;;;;5058186;28;20028;-67
2022/04/05 07:22:20;;;;;;;7.10;2.15;;;24.80;99.90;;;;;;5056345;28;20032;-67
2022/04/05 07:24:47;;;;;;;7.65;1.88;;;24.20;99.90;;;;;;5057519;28;20123;-66
2022/04/05 07:27:14;;;;;;;6.47;2.28;;;23.60;99.90;;;;;;5057913;28;21040;-64
2022/04/05 07:29:41;;;;;;;10.65;3.83;;;23.40;99.90;;;;;;5058617;28;20334;-65
2022/04/05 07:32:08;;;;;;;8.35;2.92;;;23.10;99.90;;;;;;5058675;28;20060;-67
2022/04/05 07:34:36;;;;;;;8.80;5.70;;;22.80;99.90;;;;;;5057256;28;20032;-68
2022/04/05 07:37:03;;;;;;;5.60;2.47;;;22.70;99.90;;;;;;5058101;28;20058;-64
2022/04/05 07:39:30;;;;;;;3.38;2.05;;;22.50;99.90;;;;;;5057194;28;20441;-66
2022/04/05 07:41:57;;;;;;;5.85;2.35;;;22.40;99.90;;;;;;5058115;28;20521;-68
2022/04/05 07:44:24;;;;;;;6.72;2.45;;;22.30;99.90;;;;;;5056309;28;20033;-67
2022/04/05 07:46:52;;;;;;;9.18;2.50;;;22.20;99.90;;;;;;5057462;28;20082;-68
2022/04/05 07:49:19;;;;;;;8.73;2.35;;;22.20;99.90;;;;;;5056530;28;20032;-68
2022/04/05 07:51:46;;;;;;;7.03;2.58;;;22.10;99.90;;;;;;5057297;28;20070;-69
2022/04/05 07:54:13;;;;;;;5.75;2.05;;;22.00;99.90;;;;;;5057554;28;20033;-70
2022/04/05 07:56:40;;;;;;;6.93;2.40;;;21.80;99.90;;;;;;5056729;28;20020;-69
2022/04/05 07:59:07;;;;;;;6.93;2.45;;;21.80;99.90;;;;;;5056998;28;20059;-69
2022/04/05 08:01:34;;;;;;;7.55;2.20;;;21.60;99.90;;;;;;5055356;28;20033;-72
2022/04/05 08:04:01;;;;;;;8.35;2.30;;;21.60;99.90;;;;;;5056930;28;20127;-72
2022/04/05 08:06:28;;;;;;;5.50;2.05;;;21.50;99.90;;;;;;5053140;28;20025;-72
2022/04/05 08:08:55;;;;;;;9.05;3.15;;;21.50;99.90;;;;;;5056311;28;20024;-64
2022/04/05 08:11:22;;;;;;;5.57;2.40;;;21.50;99.90;;;;;;5055835;28;20025;-65
2022/04/05 08:13:50;;;;;;;6.43;2.33;;;21.50;99.90;;;;;;5056370;28;20032;-64
2022/04/05 08:16:17;;;;;;;10.60;2.65;;;21.40;99.90;;;;;;5055517;28;20098;-70
2022/04/05 08:18:44;;;;;;;8.15;2.55;;;21.40;99.90;;;;;;5055430;28;20020;-75
2022/04/05 08:21:11;;;;;;;7.90;2.50;;;21.40;99.90;;;;;;5056841;28;20028;-71
2022/04/05 08:23:38;;;;;;;6.88;2.20;;;21.40;99.90;;;;;;5056563;28;20033;-66
2022/04/05 08:26:05;;;;;;;5.55;2.15;;;21.40;99.90;;;;;;5055979;28;20033;-65
2022/04/05 08:28:32;;;;;;;9.60;2.33;;;21.30;99.90;;;;;;5055643;28;20043;-67
2022/04/05 08:30:59;;;;;;;7.35;2.85;;;21.30;99.90;;;;;;5054134;28;20024;-71
2022/04/05 08:33:27;;;;;;;9.73;3.13;;;21.20;99.90;;;;;;5053321;28;20598;-63
2022/04/05 08:35:55;;;;;;;12.75;2.78;;;21.20;99.90;;;;;;5047432;28;20056;-65
2022/04/05 08:38:22;;;;;;;8.23;3.03;;;21.20;99.90;;;;;;5054142;28;20048;-66
2022/04/05 08:40:53;;;;;;;10.93;3.10;;;21.20;99.90;;;;;;5053581;28;20502;-71
2022/04/05 08:43:20;;;;;;;7.07;2.65;;;21.10;99.90;;;;;;5050816;28;20513;-66
2022/04/05 08:45:58;;;;;;;10.98;2.45;;;21.10;99.90;;;;;;5055094;28;20120;-66
2022/04/05 08:48:27;;;;;;;6.75;2.80;;;21.00;99.90;;;;;;5054974;28;20069;-72
2022/04/05 08:50:56;;;;;;;6.82;2.55;;;21.00;99.90;;;;;;5056069;28;20396;-69
2022/04/05 08:53:24;;;;;;;11.13;2.45;;;21.00;99.90;;;;;;5057167;28;20612;-69
2022/04/05 08:55:51;;;;;;;7.25;2.40;;;21.00;99.90;;;;;;5055359;28;20028;-72
2022/04/05 08:58:19;;;;;;;8.70;2.22;;;21.00;99.90;;;;;;5053980;28;20460;-71
2022/04/05 09:00:46;;;;;;;9.60;2.72;;;21.00;99.90;;;;;;5055297;28;20021;-67
2022/04/05 09:03:13;;;;;;;9.05;2.08;;;20.90;99.90;;;;;;5053789;28;20032;-70
2022/04/05 09:05:43;;;;;;;4.72;1.95;;;20.90;99.90;;;;;;5053515;28;20020;-69
2022/04/05 09:08:21;;;;;;;7.20;2.78;;;20.90;99.90;;;;;;5051940;28;20434;-68
2022/04/05 09:10:53;;;;;;;12.27;2.42;;;20.90;99.90;;;;;;5050011;28;20021;-69
2022/04/05 09:13:25;;;;;;;;;;;20.80;99.90;;;;;;5052755;28;20100;-68
2022/04/05 09:15:56;;;;;;;3.85;2.00;;;20.80;99.90;;;;;;5054050;28;19923;-68
2022/04/05 09:18:36;;;;;;;13.52;3.70;;;20.80;99.90;;;;;;5055401;28;20026;-71
2022/04/05 09:21:05;;;;;;;7.15;2.20;;;20.90;99.90;;;;;;5055695;28;20119;-68
2022/04/05 09:23:52;;;;;;;6.28;2.33;;;20.90;99.90;;;;;;5054157;28;20558;-65
2022/04/05 09:26:20;;;;;;;5.07;2.40;;;20.80;99.90;;;;;;5052807;28;20021;-65
2022/04/05 09:28:49;;;;;;;6.45;2.97;;;20.60;99.90;;;;;;5053273;28;20091;-70
2022/04/05 09:31:25;;;;;;;8.25;2.67;;;20.60;99.90;;;;;;5052577;28;20069;-69
2022/04/05 09:34:21;;;;;;;9.43;3.20;;;20.60;99.90;;;;;;5053804;28;20033;-68
2022/04/05 09:36:54;;;;;;;13.52;3.30;;;20.50;99.90;;;;;;4986153;28;20096;-66
2022/04/05 09:39:23;;;;;;;6.35;2.72;;;20.50;99.90;;;;;;4972378;28;20132;-67
2022/04/05 09:42:00;;;;;;;6.20;3.05;;;20.50;99.90;;;;;;4985228;28;20038;-68
2022/04/05 09:44:33;;;;;;;7.10;3.53;;;20.50;99.90;;;;;;4987087;28;20123;-67
2022/04/05 09:47:07;;;;;;;;;;;20.50;99.90;;;;;;4992661;28;20326;-68
2022/04/05 09:49:39;;;;;;;5.78;2.50;;;20.50;99.90;;;;;;4988042;28;19920;-67
2022/04/05 09:52:35;;;;;;;8.15;2.60;;;20.60;99.90;;;;;;4991957;28;20444;-67
2022/04/05 09:55:13;;;;;;;5.35;2.40;;;20.50;99.90;;;;;;4936919;28;20031;-69
2022/04/05 09:57:41;;;;;;;6.35;2.30;;;20.40;99.90;;;;;;4949465;28;20035;-69
2022/04/05 10:00:13;;;;;;;9.63;2.38;;;20.40;99.90;;;;;;4951694;28;20043;-70
2022/04/05 10:03:04;;;;;;;9.60;2.75;;;20.30;99.90;;;;;;4947602;28;20035;-68
2022/04/05 10:05:34;;;;;;;7.55;2.80;;;20.30;99.90;;;;;;4948363;28;21205;-68
2022/04/05 10:08:01;;;;;;;5.78;2.17;;;20.30;99.90;;;;;;4945265;28;20035;-66
2022/04/05 10:10:29;;;;;;;9.65;2.90;;;20.40;99.90;;;;;;4954154;28;20027;-67
2022/04/05 10:12:56;;;;;;;8.55;2.22;;;20.40;99.90;;;;;;4976582;28;20049;-69
2022/04/05 10:15:24;;;;;;;11.27;2.85;;;20.40;99.90;;;;;;5015589;28;20032;-67
2022/04/05 10:17:56;;;;;;;7.15;2.50;;;20.30;99.90;;;;;;5017058;28;20068;-68
2022/04/05 10:20:25;;;;;;;13.33;3.57;;;20.40;99.90;;;;;;5014110;28;20342;-69
2022/04/05 10:22:56;;;;;;;4.97;2.22;;;20.40;99.90;;;;;;5015504;28;20034;-68
2022/04/05 10:25:24;;;;;;;6.13;2.10;;;20.30;99.90;;;;;;5014583;28;20064;-69
2022/04/05 10:27:51;;;;;;;8.02;2.17;;;20.30;99.90;;;;;;5015480;28;20634;-69
2022/04/05 10:30:38;;;;;;;10.00;3.08;;;20.40;99.90;;;;;;5016735;28;20263;-68
2022/04/05 10:33:42;;;;;;;7.15;2.20;;;20.50;99.90;;;;;;5056679;28;20040;-69
2022/04/05 10:36:09;;;;;;;10.93;2.85;;;20.40;99.90;;;;;;4970532;28;20042;-68
2022/04/05 10:38:37;;;;;;;9.40;2.38;;;20.30;99.90;;;;;;5051129;22;21402;-68
2022/04/05 10:41:16;;;;;;;9.43;2.50;;;20.20;99.90;;;;;;5017627;28;20057;-69
2022/04/05 10:43:45;;;;;;;5.82;2.30;;;20.30;99.90;;;;;;5017933;28;20045;-69
2022/04/05 10:46:12;;;;;;;5.72;2.00;;;20.40;99.90;;;;;;5019630;28;20081;-68
2022/04/05 10:48:56;;;;;;;4.80;1.90;;;20.40;99.90;;;;;;5020608;28;20724;-69
2022/04/05 10:51:32;;;;;;;5.45;2.03;;;20.60;99.90;;;;;;5016578;28;20120;-69
2022/04/05 10:54:19;;;;;;;6.95;2.03;;;20.60;99.90;;;;;;5021302;28;20567;-68
2022/04/05 10:57:30;;;;;;;7.00;2.55;;;20.60;99.90;;;;;;5018530;28;20096;-68
2022/04/05 11:00:31;;;;;;;6.93;2.00;;;20.70;99.90;;;;;;5000844;28;20524;-68
2022/04/05 11:03:06;;;;;;;7.20;2.05;;;20.50;99.90;;;;;;4961606;28;20231;-68
2022/04/05 11:05:37;;;;;;;5.05;2.42;;;20.40;99.90;;;;;;4959885;28;20814;-68
2022/04/05 11:08:23;;;;;;;7.63;2.42;;;20.40;99.90;;;;;;4961132;28;20651;-70
2022/04/05 11:10:54;;;;;;;7.68;3.17;;;20.20;99.90;;;;;;4963958;28;20031;-68
2022/04/05 11:13:38;;;;;;;6.15;1.88;;;20.20;99.90;;;;;;4966000;28;20490;-69
2022/04/05 11:16:10;;;;;;;6.07;2.22;;;20.20;99.90;;;;;;4949535;28;20198;-67
2022/04/05 11:18:39;;;;;;;6.13;2.10;;;20.10;99.90;;;;;;4967654;28;20103;-68
2022/04/05 11:21:09;;;;;;;7.30;2.42;;;19.90;99.90;;;;;;4966040;28;20149;-68
2022/04/05 11:23:48;;;;;;;5.40;2.13;;;19.70;99.90;;;;;;4951087;28;20035;-68
2022/04/05 11:26:33;;;;;;;10.93;3.70;;;19.60;99.90;;;;;;4967886;28;20120;-70
2022/04/05 11:29:03;;;;;;;10.55;5.60;;;19.50;99.90;;;;;;4965845;28;20023;-70
2022/04/05 11:31:37;;;;;;;10.82;6.50;;;19.40;99.90;;;;;;4965755;28;20035;-69
2022/04/05 11:34:34;;;;;;;6.20;2.63;;;19.40;99.90;;;;;;4966104;28;20074;-68
2022/04/05 11:37:05;;;;;;;11.05;4.22;;;19.30;99.90;;;;;;4978904;28;20129;-68
2022/04/05 11:39:40;;;;;;;7.43;2.72;;;19.40;99.90;;;;;;4994963;28;20657;-69
2022/04/05 11:42:07;;;;;;;5.63;2.78;;;19.40;99.90;;;;;;5031518;28;20031;-69
2022/04/05 11:44:34;;;;;;;9.07;2.90;;;19.60;99.90;;;;;;5028435;28;20033;-70
2022/04/05 11:47:02;;;;;;;5.60;2.15;;;19.60;99.90;;;;;;5027201;28;20034;-69
2022/04/05 11:49:41;;;;;;;5.28;2.80;;;19.70;99.90;;;;;;5025885;28;20033;-68
2022/04/05 11:52:10;;;;;;;6.93;2.28;;;19.70;99.90;;;;;;5026416;28;20487;-68
2022/04/05 11:56:00;;;;;;;5.95;2.13;;;19.80;99.90;;;;;;5027946;28;20127;-69
2022/04/05 11:57:25;;;;;;;4.13;1.92;;;19.90;99.90;;;;;;5027022;28;20033;-70
2022/04/05 12:00:09;;;;;;;10.48;2.55;;;19.90;99.90;;;;;;5030119;28;20099;-68
2022/04/05 12:02:37;;;;;;;8.43;2.45;;;19.80;99.90;;;;;;5025033;28;20033;-69
2022/04/05 12:05:04;;;;;;;8.40;2.75;;;19.80;99.90;;;;;;5026630;28;20080;-69
2022/04/05 12:07:35;;;;;;;6.88;2.40;;;19.80;99.90;;;;;;5022689;28;20799;-68
2022/04/05 12:10:03;;;;;;;6.82;2.60;;;19.70;99.90;;;;;;5032113;28;20030;-70
2022/04/05 12:12:30;;;;;;;7.30;2.55;;;19.80;99.90;;;;;;5028059;28;20128;-71
2022/04/05 12:14:57;;;;;;;7.80;2.40;;;19.80;99.90;;;;;;5024061;28;20037;-67
2022/04/05 12:17:24;;;;;;;7.63;2.65;;;19.60;99.90;;;;;;5027614;28;20034;-68
2022/04/05 12:19:53;;;;;;;8.18;2.95;;;19.60;99.90;;;;;;5028654;28;20036;-68
2022/04/05 12:22:20;;;;;;;9.20;3.08;;;19.50;99.90;;;;;;5029729;28;20041;-68
2022/04/05 12:25:00;;;;;;;9.30;3.60;;;19.30;99.90;;;;;;5027578;28;20040;-69
2022/04/05 12:27:30;;;;;;;10.77;3.30;;;19.30;99.90;;;;;;5021173;28;20116;-67
2022/04/05 12:30:03;;;;;;;6.60;2.92;;;19.20;99.90;;;;;;5028057;28;20049;-67
2022/04/05 12:32:35;;;;;;;7.68;2.50;;;19.20;99.90;;;;;;5031039;28;20032;-66
2022/04/05 12:35:03;;;;;;;6.53;3.15;;;19.20;99.90;;;;;;5022614;28;20036;-73
2022/04/05 12:37:55;;;;;;;8.15;2.88;;;19.20;99.90;;;;;;5024692;28;20136;-69
2022/04/05 12:40:24;;;;;;;7.00;2.95;;;19.30;99.90;;;;;;5033732;28;20404;-69
2022/04/05 12:42:51;;;;;;;10.85;3.45;;;19.30;99.90;;;;;;5027159;28;20040;-68
2022/04/05 12:45:30;;;;;;;7.80;3.33;;;19.20;99.90;;;;;;5027923;28;20048;-70
2022/04/05 12:47:57;;;;;;;6.80;3.10;;;19.20;99.90;;;;;;5024614;28;20035;-68
2022/04/05 12:50:24;;;;;;;12.25;3.28;;;19.20;99.90;;;;;;5031197;28;20026;-67
2022/04/05 12:53:00;;;;;;;11.32;3.92;;;19.10;99.90;;;;;;5028235;28;20014;-68
2022/04/05 12:55:27;;;;;;;9.60;3.65;;;19.00;99.90;;;;;;5025923;28;20454;-70
2022/04/05 12:57:54;;;;;;;7.30;3.35;;;19.00;99.90;;;;;;5023371;28;20047;-69